<?xml version="1.0" encoding="UTF-8" standalone="no" ?>
<gpx xmlns="http://www.topografix.com/GPX/1/1" xmlns:xsi="http://www.w3.org/2001/XMLSchema-instance" xsi:schemaLocation="http://www.topografix.com/GPX/1/1 http://www.topografix.com/GPX/1/1/gpx.xsd" version="1.1" creator="VisuGPX - https://www.visugpx.com">
  <metadata>
    <name>Circuit Lieu St Amand - Vallée de l'Ecaillon</name>
  </metadata>
  <trk>
    <name><![CDATA[Circuit Lieu St Amand - Vallée de l'Ecaillon_1]]></name>
    <trkseg>
      <trkpt lat="50.27373" lon="3.34639">
        <ele>62.5</ele>
        <time>2019-06-04T18:02:53Z</time>
      </trkpt>
      <trkpt lat="50.27385" lon="3.34652">
        <ele>62.7</ele>
        <time>2019-06-04T18:01:58Z</time>
      </trkpt>
      <trkpt lat="50.27432" lon="3.34761">
        <ele>63.8</ele>
        <time>2019-06-04T18:00:57Z</time>
      </trkpt>
      <trkpt lat="50.2746" lon="3.3483">
        <ele>63.8</ele>
        <time>2019-06-04T17:58:12Z</time>
      </trkpt>
      <trkpt lat="50.27477" lon="3.34927">
        <ele>64.1</ele>
        <time>2019-06-04T17:57:26Z</time>
      </trkpt>
      <trkpt lat="50.27486" lon="3.3499">
        <ele>64.1</ele>
        <time>2019-06-04T17:57:01Z</time>
      </trkpt>
      <trkpt lat="50.27497" lon="3.35066">
        <ele>64.2</ele>
        <time>2019-06-04T17:56:15Z</time>
      </trkpt>
      <trkpt lat="50.27517" lon="3.35133">
        <ele>63.8</ele>
        <time>2019-06-04T17:55:54Z</time>
      </trkpt>
      <trkpt lat="50.2755" lon="3.35239">
        <ele>63.7</ele>
        <time>2019-06-04T17:55:05Z</time>
      </trkpt>
      <trkpt lat="50.27605" lon="3.35391">
        <ele>63.2</ele>
        <time>2019-06-04T17:54:09Z</time>
      </trkpt>
      <trkpt lat="50.27662" lon="3.35573">
        <ele>62.1</ele>
        <time>2019-06-04T17:53:46Z</time>
      </trkpt>
      <trkpt lat="50.27694" lon="3.35669">
        <ele>63.7</ele>
        <time>2019-06-04T17:52:08Z</time>
      </trkpt>
      <trkpt lat="50.27792" lon="3.35879">
        <ele>66</ele>
        <time>2019-06-04T17:50:25Z</time>
      </trkpt>
      <trkpt lat="50.27826" lon="3.35946">
        <ele>65.9</ele>
        <time>2019-06-04T17:49:04Z</time>
      </trkpt>
      <trkpt lat="50.27834" lon="3.35973">
        <ele>65.6</ele>
        <time>2019-06-04T17:48:43Z</time>
      </trkpt>
      <trkpt lat="50.27813" lon="3.35981">
        <ele>66.2</ele>
        <time>2019-06-04T17:47:56Z</time>
      </trkpt>
      <trkpt lat="50.27769" lon="3.3599">
        <ele>66.6</ele>
        <time>2019-06-04T17:47:31Z</time>
      </trkpt>
      <trkpt lat="50.27692" lon="3.35988">
        <ele>65.7</ele>
        <time>2019-06-04T17:46:58Z</time>
      </trkpt>
      <trkpt lat="50.27652" lon="3.35978">
        <ele>64.2</ele>
        <time>2019-06-04T17:45:26Z</time>
      </trkpt>
      <trkpt lat="50.27603" lon="3.35967">
        <ele>63.5</ele>
        <time>2019-06-04T17:44:43Z</time>
      </trkpt>
      <trkpt lat="50.27547" lon="3.35958">
        <ele>60.6</ele>
        <time>2019-06-04T17:44:09Z</time>
      </trkpt>
      <trkpt lat="50.27497" lon="3.35951">
        <ele>57.5</ele>
        <time>2019-06-04T17:43:14Z</time>
      </trkpt>
      <trkpt lat="50.27459" lon="3.35936">
        <ele>56.9</ele>
        <time>2019-06-04T17:42:26Z</time>
      </trkpt>
      <trkpt lat="50.27413" lon="3.35905">
        <ele>54.6</ele>
        <time>2019-06-04T17:41:41Z</time>
      </trkpt>
      <trkpt lat="50.27384" lon="3.35896">
        <ele>54.1</ele>
        <time>2019-06-04T17:39:27Z</time>
      </trkpt>
      <trkpt lat="50.27345" lon="3.35887">
        <ele>53.7</ele>
        <time>2019-06-04T17:38:34Z</time>
      </trkpt>
      <trkpt lat="50.27283" lon="3.35876">
        <ele>53.6</ele>
        <time>2019-06-04T17:38:01Z</time>
      </trkpt>
      <trkpt lat="50.27153" lon="3.35916">
        <ele>52.2</ele>
        <time>2019-06-04T17:37:02Z</time>
      </trkpt>
      <trkpt lat="50.2706" lon="3.35938">
        <ele>53.5</ele>
        <time>2019-06-04T17:36:48Z</time>
      </trkpt>
      <trkpt lat="50.26992" lon="3.35942">
        <ele>54.9</ele>
        <time>2019-06-04T17:36:36Z</time>
      </trkpt>
      <trkpt lat="50.26941" lon="3.35936">
        <ele>55.6</ele>
        <time>2019-06-04T17:35:54Z</time>
      </trkpt>
      <trkpt lat="50.26906" lon="3.35924">
        <ele>56.7</ele>
        <time>2019-06-04T17:35:21Z</time>
      </trkpt>
      <trkpt lat="50.2689" lon="3.35918">
        <ele>57.2</ele>
        <time>2019-06-04T17:35:05Z</time>
      </trkpt>
      <trkpt lat="50.2681" lon="3.35847">
        <ele>59</ele>
        <time>2019-06-04T17:34:40Z</time>
      </trkpt>
      <trkpt lat="50.26714" lon="3.3574">
        <ele>58.6</ele>
        <time>2019-06-04T17:34:14Z</time>
      </trkpt>
      <trkpt lat="50.26663" lon="3.35692">
        <ele>59.8</ele>
        <time>2019-06-04T17:32:40Z</time>
      </trkpt>
      <trkpt lat="50.26608" lon="3.3566">
        <ele>60.3</ele>
        <time>2019-06-04T17:32:16Z</time>
      </trkpt>
      <trkpt lat="50.26472" lon="3.35611">
        <ele>62.8</ele>
        <time>2019-06-04T17:31:45Z</time>
      </trkpt>
      <trkpt lat="50.26418" lon="3.35572">
        <ele>62.8</ele>
        <time>2019-06-04T17:30:58Z</time>
      </trkpt>
      <trkpt lat="50.26235" lon="3.35455">
        <ele>62.8</ele>
        <time>2019-06-04T17:30:26Z</time>
      </trkpt>
      <trkpt lat="50.26184" lon="3.35425">
        <ele>63</ele>
        <time>2019-06-04T17:29:49Z</time>
      </trkpt>
      <trkpt lat="50.26131" lon="3.35394">
        <ele>62.1</ele>
        <time>2019-06-04T17:29:01Z</time>
      </trkpt>
      <trkpt lat="50.26045" lon="3.3531">
        <ele>61.3</ele>
        <time>2019-06-04T17:27:51Z</time>
      </trkpt>
      <trkpt lat="50.25989" lon="3.35252">
        <ele>61.2</ele>
        <time>2019-06-04T17:26:03Z</time>
      </trkpt>
      <trkpt lat="50.25975" lon="3.35242">
        <ele>60.9</ele>
        <time>2019-06-04T17:25:10Z</time>
      </trkpt>
      <trkpt lat="50.25966" lon="3.35259">
        <ele>63</ele>
        <time>2019-06-04T17:24:24Z</time>
      </trkpt>
      <trkpt lat="50.25947" lon="3.35624">
        <ele>64</ele>
        <time>2019-06-04T17:23:11Z</time>
      </trkpt>
      <trkpt lat="50.25832" lon="3.35997">
        <ele>68</ele>
        <time>2019-06-04T17:21:46Z</time>
      </trkpt>
      <trkpt lat="50.25437" lon="3.36907">
        <ele>72</ele>
        <time>2019-06-04T17:20:38Z</time>
      </trkpt>
      <trkpt lat="50.25445" lon="3.37216">
        <ele>71</ele>
        <time>2019-06-04T17:20:17Z</time>
      </trkpt>
      <trkpt lat="50.2539" lon="3.37362">
        <ele>71</ele>
        <time>2019-06-04T17:19:47Z</time>
      </trkpt>
      <trkpt lat="50.25214" lon="3.37495">
        <ele>66</ele>
        <time>2019-06-04T17:18:07Z</time>
      </trkpt>
      <trkpt lat="50.25143" lon="3.37581">
        <ele>66</ele>
        <time>2019-06-04T17:17:44Z</time>
      </trkpt>
      <trkpt lat="50.24954" lon="3.37435">
        <ele>60</ele>
        <time>2019-06-04T17:16:59Z</time>
      </trkpt>
      <trkpt lat="50.24822" lon="3.37753">
        <ele>62</ele>
        <time>2019-06-04T17:16:17Z</time>
      </trkpt>
      <trkpt lat="50.24792" lon="3.37899">
        <ele>62</ele>
        <time>2019-06-04T17:15:16Z</time>
      </trkpt>
      <trkpt lat="50.25104" lon="3.38332">
        <ele>69</ele>
        <time>2019-06-04T17:15:08Z</time>
      </trkpt>
      <trkpt lat="50.24874" lon="3.38924">
        <ele>68</ele>
        <time>2019-06-04T17:14:58Z</time>
      </trkpt>
      <trkpt lat="50.2517" lon="3.39199">
        <ele>68</ele>
        <time>2019-06-04T17:14:41Z</time>
      </trkpt>
      <trkpt lat="50.25247" lon="3.39272">
        <ele>67</ele>
        <time>2019-06-04T17:14:21Z</time>
      </trkpt>
      <trkpt lat="50.25423" lon="3.39431">
        <ele>66</ele>
        <time>2019-06-04T17:14:01Z</time>
      </trkpt>
      <trkpt lat="50.25494" lon="3.39555">
        <ele>65</ele>
        <time>2019-06-04T17:13:39Z</time>
      </trkpt>
      <trkpt lat="50.25601" lon="3.39697">
        <ele>64</ele>
        <time>2019-06-04T17:13:19Z</time>
      </trkpt>
      <trkpt lat="50.25681" lon="3.40302">
        <ele>56</ele>
        <time>2019-06-04T17:13:00Z</time>
      </trkpt>
      <trkpt lat="50.25697" lon="3.40589">
        <ele>51</ele>
        <time>2019-06-04T17:11:34Z</time>
      </trkpt>
      <trkpt lat="50.25703" lon="3.40817">
        <ele>54</ele>
        <time>2019-06-04T17:11:00Z</time>
      </trkpt>
      <trkpt lat="50.25609" lon="3.41156">
        <ele>55</ele>
        <time>2019-06-04T17:09:11Z</time>
      </trkpt>
      <trkpt lat="50.25497" lon="3.41426">
        <ele>51</ele>
        <time>2019-06-04T17:07:33Z</time>
      </trkpt>
      <trkpt lat="50.25371" lon="3.41649">
        <ele>48</ele>
        <time>2019-06-04T17:06:44Z</time>
      </trkpt>
      <trkpt lat="50.2497" lon="3.42289">
        <ele>51</ele>
        <time>2019-06-04T17:05:13Z</time>
      </trkpt>
      <trkpt lat="50.24871" lon="3.42611">
        <ele>48</ele>
        <time>2019-06-04T17:04:10Z</time>
      </trkpt>
      <trkpt lat="50.24783" lon="3.42787">
        <ele>51</ele>
        <time>2019-06-04T17:02:45Z</time>
      </trkpt>
      <trkpt lat="50.246" lon="3.43053">
        <ele>57</ele>
        <time>2019-06-04T17:01:07Z</time>
      </trkpt>
      <trkpt lat="50.24632" lon="3.43134">
        <ele>53</ele>
        <time>2019-06-04T17:00:12Z</time>
      </trkpt>
      <trkpt lat="50.24602" lon="3.43203">
        <ele>53</ele>
        <time>2019-06-04T16:59:20Z</time>
      </trkpt>
      <trkpt lat="50.24471" lon="3.43392">
        <ele>53</ele>
        <time>2019-06-04T16:59:05Z</time>
      </trkpt>
      <trkpt lat="50.24333" lon="3.4334">
        <ele>60</ele>
        <time>2019-06-04T16:58:00Z</time>
      </trkpt>
      <trkpt lat="50.24281" lon="3.43267">
        <ele>60</ele>
        <time>2019-06-04T16:56:00Z</time>
      </trkpt>
      <trkpt lat="50.2418" lon="3.43229">
        <ele>65</ele>
        <time>2019-06-04T16:53:31Z</time>
      </trkpt>
      <trkpt lat="50.241" lon="3.43353">
        <ele>65</ele>
        <time>2019-06-04T16:52:56Z</time>
      </trkpt>
      <trkpt lat="50.23746" lon="3.43649">
        <ele>56</ele>
        <time>2019-06-04T16:51:54Z</time>
      </trkpt>
      <trkpt lat="50.23661" lon="3.43744">
        <ele>54</ele>
        <time>2019-06-04T16:50:42Z</time>
      </trkpt>
      <trkpt lat="50.23548" lon="3.43851">
        <ele>52</ele>
        <time>2019-06-04T16:49:31Z</time>
      </trkpt>
      <trkpt lat="50.23373" lon="3.43692">
        <ele>60</ele>
        <time>2019-06-04T16:48:40Z</time>
      </trkpt>
      <trkpt lat="50.23252" lon="3.43589">
        <ele>65</ele>
        <time>2019-06-04T16:48:08Z</time>
      </trkpt>
      <trkpt lat="50.23109" lon="3.43482">
        <ele>72</ele>
        <time>2019-06-04T16:47:26Z</time>
      </trkpt>
      <trkpt lat="50.22911" lon="3.43546">
        <ele>72</ele>
        <time>2019-06-04T16:46:55Z</time>
      </trkpt>
      <trkpt lat="50.22656" lon="3.43791">
        <ele>75</ele>
        <time>2019-06-04T16:46:19Z</time>
      </trkpt>
      <trkpt lat="50.22321" lon="3.44293">
        <ele>70</ele>
        <time>2019-06-04T16:45:46Z</time>
      </trkpt>
      <trkpt lat="50.22148" lon="3.4452">
        <ele>72</ele>
        <time>2019-06-04T16:45:05Z</time>
      </trkpt>
      <trkpt lat="50.2197" lon="3.44658">
        <ele>76</ele>
        <time>2019-06-04T16:43:39Z</time>
      </trkpt>
      <trkpt lat="50.21709" lon="3.44924">
        <ele>83</ele>
        <time>2019-06-04T16:43:15Z</time>
      </trkpt>
      <trkpt lat="50.21355" lon="3.4507">
        <ele>85</ele>
        <time>2019-06-04T16:42:36Z</time>
      </trkpt>
      <trkpt lat="50.21536" lon="3.45426">
        <ele>79</ele>
        <time>2019-06-04T16:38:14Z</time>
      </trkpt>
      <trkpt lat="50.21604" lon="3.45512">
        <ele>77</ele>
        <time>2019-06-04T16:36:58Z</time>
      </trkpt>
      <trkpt lat="50.21654" lon="3.45701">
        <ele>74</ele>
        <time>2019-06-04T16:34:53Z</time>
      </trkpt>
      <trkpt lat="50.21876" lon="3.46271">
        <ele>77</ele>
        <time>2019-06-04T16:34:01Z</time>
      </trkpt>
      <trkpt lat="50.21926" lon="3.46404">
        <ele>77</ele>
        <time>2019-06-04T16:31:56Z</time>
      </trkpt>
      <trkpt lat="50.21997" lon="3.46683">
        <ele>71</ele>
        <time>2019-06-04T16:29:49Z</time>
      </trkpt>
      <trkpt lat="50.22058" lon="3.46945">
        <ele>62</ele>
        <time>2019-06-04T16:28:39Z</time>
      </trkpt>
      <trkpt lat="50.21843" lon="3.47181">
        <ele>65</ele>
        <time>2019-06-04T16:27:49Z</time>
      </trkpt>
      <trkpt lat="50.21863" lon="3.47224">
        <ele>62</ele>
        <time>2019-06-04T16:26:57Z</time>
      </trkpt>
      <trkpt lat="50.21907" lon="3.47211">
        <ele>60</ele>
        <time>2019-06-04T16:26:47Z</time>
      </trkpt>
      <trkpt lat="50.21961" lon="3.47288">
        <ele>58</ele>
        <time>2019-06-04T16:26:17Z</time>
      </trkpt>
      <trkpt lat="50.22044" lon="3.4731">
        <ele>57</ele>
        <time>2019-06-04T16:25:38Z</time>
      </trkpt>
      <trkpt lat="50.22115" lon="3.47379">
        <ele>55</ele>
        <time>2019-06-04T16:24:56Z</time>
      </trkpt>
      <trkpt lat="50.22184" lon="3.47482">
        <ele>55</ele>
        <time>2019-06-04T16:24:28Z</time>
      </trkpt>
      <trkpt lat="50.22242" lon="3.4758">
        <ele>59</ele>
        <time>2019-06-04T16:24:00Z</time>
      </trkpt>
      <trkpt lat="50.22167" lon="3.47627">
        <ele>60</ele>
        <time>2019-06-04T16:23:26Z</time>
      </trkpt>
      <trkpt lat="50.22346" lon="3.48134">
        <ele>77</ele>
        <time>2019-06-04T16:22:49Z</time>
      </trkpt>
      <trkpt lat="50.22384" lon="3.48353">
        <ele>80</ele>
        <time>2019-06-04T16:22:23Z</time>
      </trkpt>
      <trkpt lat="50.22373" lon="3.49082">
        <ele>91</ele>
        <time>2019-06-04T16:22:08Z</time>
      </trkpt>
      <trkpt lat="50.22675" lon="3.49537">
        <ele>95</ele>
        <time>2019-06-04T16:21:50Z</time>
      </trkpt>
      <trkpt lat="50.22835" lon="3.49747">
        <ele>96</ele>
        <time>2019-06-04T16:21:29Z</time>
      </trkpt>
      <trkpt lat="50.23167" lon="3.50074">
        <ele>90</ele>
        <time>2019-06-04T16:21:02Z</time>
      </trkpt>
      <trkpt lat="50.23233" lon="3.50477">
        <ele>97</ele>
        <time>2019-06-04T16:19:29Z</time>
      </trkpt>
      <trkpt lat="50.236" lon="3.50477">
        <ele>90</ele>
        <time>2019-06-04T16:17:43Z</time>
      </trkpt>
      <trkpt lat="50.23331" lon="3.50975">
        <ele>89</ele>
        <time>2019-06-04T16:17:27Z</time>
      </trkpt>
      <trkpt lat="50.23222" lon="3.51305">
        <ele>82</ele>
        <time>2019-06-04T16:17:04Z</time>
      </trkpt>
      <trkpt lat="50.23183" lon="3.51644">
        <ele>80</ele>
        <time>2019-06-04T16:15:57Z</time>
      </trkpt>
      <trkpt lat="50.23219" lon="3.5173">
        <ele>80</ele>
        <time>2019-06-04T16:15:22Z</time>
      </trkpt>
      <trkpt lat="50.23128" lon="3.52142">
        <ele>90</ele>
        <time>2019-06-04T16:13:37Z</time>
      </trkpt>
      <trkpt lat="50.22936" lon="3.52885">
        <ele>100</ele>
        <time>2019-06-04T16:13:11Z</time>
      </trkpt>
      <trkpt lat="50.23573" lon="3.52992">
        <ele>97</ele>
        <time>2019-06-04T16:12:52Z</time>
      </trkpt>
      <trkpt lat="50.23721" lon="3.52996">
        <ele>95</ele>
        <time>2019-06-04T16:12:42Z</time>
      </trkpt>
      <trkpt lat="50.23979" lon="3.53099">
        <ele>88</ele>
        <time>2019-06-04T16:12:18Z</time>
      </trkpt>
      <trkpt lat="50.24235" lon="3.53365">
        <ele>74</ele>
        <time>2019-06-04T16:11:52Z</time>
      </trkpt>
      <trkpt lat="50.24506" lon="3.53588">
        <ele>61</ele>
        <time>2019-06-04T16:11:25Z</time>
      </trkpt>
      <trkpt lat="50.2472" lon="3.53537">
        <ele>57</ele>
        <time>2019-06-04T16:11:06Z</time>
      </trkpt>
      <trkpt lat="50.24849" lon="3.53614">
        <ele>60</ele>
        <time>2019-06-04T16:10:32Z</time>
      </trkpt>
      <trkpt lat="50.25" lon="3.53468">
        <ele>68</ele>
        <time>2019-06-04T16:09:38Z</time>
      </trkpt>
      <trkpt lat="50.25132" lon="3.53447">
        <ele>73</ele>
        <time>2019-06-04T16:09:06Z</time>
      </trkpt>
      <trkpt lat="50.25264" lon="3.53314">
        <ele>76</ele>
        <time>2019-06-04T16:08:37Z</time>
      </trkpt>
      <trkpt lat="50.25401" lon="3.53335">
        <ele>82</ele>
        <time>2019-06-04T16:08:03Z</time>
      </trkpt>
      <trkpt lat="50.25576" lon="3.53275">
        <ele>85</ele>
        <time>2019-06-04T16:07:31Z</time>
      </trkpt>
      <trkpt lat="50.25941" lon="3.53284">
        <ele>94</ele>
        <time>2019-06-04T16:06:59Z</time>
      </trkpt>
      <trkpt lat="50.2604" lon="3.5334">
        <ele>93</ele>
        <time>2019-06-04T16:06:28Z</time>
      </trkpt>
      <trkpt lat="50.26205" lon="3.53314">
        <ele>92</ele>
        <time>2019-06-04T16:06:02Z</time>
      </trkpt>
      <trkpt lat="50.27318" lon="3.53558">
        <ele>85</ele>
        <time>2019-06-04T16:05:23Z</time>
      </trkpt>
      <trkpt lat="50.27626" lon="3.53408">
        <ele>93</ele>
        <time>2019-06-04T16:04:14Z</time>
      </trkpt>
      <trkpt lat="50.28144" lon="3.53181">
        <ele>88</ele>
        <time>2019-06-04T16:03:32Z</time>
      </trkpt>
      <trkpt lat="50.28023" lon="3.52893">
        <ele>95</ele>
        <time>2019-06-04T16:02:36Z</time>
      </trkpt>
      <trkpt lat="50.27678" lon="3.52254">
        <ele>88</ele>
        <time>2019-06-04T16:01:29Z</time>
      </trkpt>
      <trkpt lat="50.27211" lon="3.51816">
        <ele>82</ele>
        <time>2019-06-04T16:00:26Z</time>
      </trkpt>
      <trkpt lat="50.26948" lon="3.51584">
        <ele>79</ele>
        <time>2019-06-04T15:59:33Z</time>
      </trkpt>
      <trkpt lat="50.26745" lon="3.51481">
        <ele>70</ele>
        <time>2019-06-04T15:59:02Z</time>
      </trkpt>
      <trkpt lat="50.26553" lon="3.5131">
        <ele>58</ele>
        <time>2019-06-04T15:58:31Z</time>
      </trkpt>
      <trkpt lat="50.26597" lon="3.51292">
        <ele>60</ele>
        <time>2019-06-04T15:57:57Z</time>
      </trkpt>
      <trkpt lat="50.26545" lon="3.51112">
        <ele>55</ele>
        <time>2019-06-04T15:57:05Z</time>
      </trkpt>
      <trkpt lat="50.26507" lon="3.50859">
        <ele>54</ele>
        <time>2019-06-04T15:56:48Z</time>
      </trkpt>
      <trkpt lat="50.26383" lon="3.50649">
        <ele>49</ele>
        <time>2019-06-04T15:55:26Z</time>
      </trkpt>
      <trkpt lat="50.26471" lon="3.50529">
        <ele>52</ele>
        <time>2019-06-04T15:54:44Z</time>
      </trkpt>
      <trkpt lat="50.2657" lon="3.50417">
        <ele>54</ele>
        <time>2019-06-04T15:54:04Z</time>
      </trkpt>
      <trkpt lat="50.2666" lon="3.50237">
        <ele>51</ele>
        <time>2019-06-04T15:52:50Z</time>
      </trkpt>
      <trkpt lat="50.26649" lon="3.49992">
        <ele>45</ele>
        <time>2019-06-04T15:52:16Z</time>
      </trkpt>
      <trkpt lat="50.2674" lon="3.49885">
        <ele>50</ele>
        <time>2019-06-04T15:51:44Z</time>
      </trkpt>
      <trkpt lat="50.26762" lon="3.49795">
        <ele>53</ele>
        <time>2019-06-04T15:51:01Z</time>
      </trkpt>
      <trkpt lat="50.26762" lon="3.4967">
        <ele>56</ele>
        <time>2019-06-04T15:50:03Z</time>
      </trkpt>
      <trkpt lat="50.26784" lon="3.49537">
        <ele>56</ele>
        <time>2019-06-04T15:49:03Z</time>
      </trkpt>
      <trkpt lat="50.26841" lon="3.49383">
        <ele>58</ele>
        <time>2019-06-04T15:48:24Z</time>
      </trkpt>
      <trkpt lat="50.27025" lon="3.48825">
        <ele>65</ele>
        <time>2019-06-04T15:47:27Z</time>
      </trkpt>
      <trkpt lat="50.2722" lon="3.48185">
        <ele>49</ele>
        <time>2019-06-04T15:46:41Z</time>
      </trkpt>
      <trkpt lat="50.27242" lon="3.48082">
        <ele>51</ele>
        <time>2019-06-04T15:45:24Z</time>
      </trkpt>
      <trkpt lat="50.27297" lon="3.47958">
        <ele>53</ele>
        <time>2019-06-04T15:44:10Z</time>
      </trkpt>
      <trkpt lat="50.27461" lon="3.47585">
        <ele>57</ele>
        <time>2019-06-04T15:42:45Z</time>
      </trkpt>
      <trkpt lat="50.27535" lon="3.47383">
        <ele>58</ele>
        <time>2019-06-04T15:40:30Z</time>
      </trkpt>
      <trkpt lat="50.27168" lon="3.46975">
        <ele>39</ele>
        <time>2019-06-04T15:38:51Z</time>
      </trkpt>
      <trkpt lat="50.2711" lon="3.46825">
        <ele>37</ele>
        <time>2019-06-04T15:37:53Z</time>
      </trkpt>
      <trkpt lat="50.27041" lon="3.46765">
        <ele>39</ele>
        <time>2019-06-04T15:35:35Z</time>
      </trkpt>
      <trkpt lat="50.27025" lon="3.467">
        <ele>40</ele>
        <time>2019-06-04T15:34:31Z</time>
      </trkpt>
      <trkpt lat="50.2697" lon="3.46567">
        <ele>42</ele>
        <time>2019-06-04T15:33:46Z</time>
      </trkpt>
      <trkpt lat="50.26891" lon="3.46439">
        <ele>48</ele>
        <time>2019-06-04T15:31:56Z</time>
      </trkpt>
      <trkpt lat="50.26956" lon="3.46293">
        <ele>49</ele>
        <time>2019-06-04T15:31:10Z</time>
      </trkpt>
      <trkpt lat="50.26934" lon="3.46168">
        <ele>52</ele>
        <time>2019-06-04T15:30:44Z</time>
      </trkpt>
      <trkpt lat="50.26885" lon="3.45958">
        <ele>56</ele>
        <time>2019-06-04T15:30:05Z</time>
      </trkpt>
      <trkpt lat="50.26814" lon="3.45615">
        <ele>57</ele>
      </trkpt>
      <trkpt lat="50.26806" lon="3.45396">
        <ele>60</ele>
      </trkpt>
      <trkpt lat="50.26795" lon="3.45207">
        <ele>61</ele>
      </trkpt>
      <trkpt lat="50.26753" lon="3.44984">
        <ele>63</ele>
      </trkpt>
      <trkpt lat="50.2671" lon="3.44786">
        <ele>64</ele>
      </trkpt>
      <trkpt lat="50.26731" lon="3.44572">
        <ele>64</ele>
      </trkpt>
      <trkpt lat="50.26729" lon="3.44366">
        <ele>69</ele>
      </trkpt>
      <trkpt lat="50.26655" lon="3.44229">
        <ele>71</ele>
      </trkpt>
      <trkpt lat="50.26539" lon="3.44044">
        <ele>72</ele>
      </trkpt>
      <trkpt lat="50.26353" lon="3.43684">
        <ele>78</ele>
      </trkpt>
      <trkpt lat="50.26232" lon="3.43478">
        <ele>75</ele>
      </trkpt>
      <trkpt lat="50.26218" lon="3.43104">
        <ele>72</ele>
      </trkpt>
      <trkpt lat="50.26213" lon="3.42658">
        <ele>63</ele>
      </trkpt>
      <trkpt lat="50.26161" lon="3.42242">
        <ele>53</ele>
      </trkpt>
      <trkpt lat="50.26021" lon="3.41963">
        <ele>46</ele>
      </trkpt>
      <trkpt lat="50.25922" lon="3.41821">
        <ele>44</ele>
      </trkpt>
      <trkpt lat="50.25807" lon="3.41714">
        <ele>44</ele>
      </trkpt>
      <trkpt lat="50.25744" lon="3.41508">
        <ele>44</ele>
      </trkpt>
      <trkpt lat="50.25544" lon="3.41362">
        <ele>50</ele>
      </trkpt>
      <trkpt lat="50.25568" lon="3.41255">
        <ele>52</ele>
      </trkpt>
      <trkpt lat="50.25804" lon="3.40847">
        <ele>49</ele>
      </trkpt>
      <trkpt lat="50.25917" lon="3.40632">
        <ele>44</ele>
      </trkpt>
      <trkpt lat="50.26073" lon="3.40508">
        <ele>40</ele>
      </trkpt>
      <trkpt lat="50.26356" lon="3.40285">
        <ele>42</ele>
      </trkpt>
      <trkpt lat="50.26498" lon="3.40289">
        <ele>42</ele>
      </trkpt>
      <trkpt lat="50.26635" lon="3.40336">
        <ele>40</ele>
      </trkpt>
      <trkpt lat="50.26819" lon="3.40323">
        <ele>41</ele>
      </trkpt>
      <trkpt lat="50.27061" lon="3.40242">
        <ele>41</ele>
      </trkpt>
      <trkpt lat="50.27302" lon="3.40117">
        <ele>40</ele>
      </trkpt>
      <trkpt lat="50.27447" lon="3.39976">
        <ele>43</ele>
      </trkpt>
      <trkpt lat="50.27661" lon="3.398">
        <ele>45</ele>
      </trkpt>
      <trkpt lat="50.27834" lon="3.3965">
        <ele>46</ele>
      </trkpt>
      <trkpt lat="50.28075" lon="3.39298">
        <ele>37</ele>
      </trkpt>
      <trkpt lat="50.28202" lon="3.38847">
        <ele>39</ele>
      </trkpt>
      <trkpt lat="50.27949" lon="3.38431">
        <ele>50</ele>
      </trkpt>
      <trkpt lat="50.27486" lon="3.37894">
        <ele>64</ele>
      </trkpt>
      <trkpt lat="50.27154" lon="3.37478">
        <ele>66</ele>
      </trkpt>
      <trkpt lat="50.27324" lon="3.37199">
        <ele>65</ele>
      </trkpt>
      <trkpt lat="50.27713" lon="3.36504">
        <ele>61</ele>
      </trkpt>
      <trkpt lat="50.27908" lon="3.36195">
        <ele>65</ele>
      </trkpt>
      <trkpt lat="50.27804" lon="3.35942">
        <ele>66</ele>
      </trkpt>
      <trkpt lat="50.27565" lon="3.35306">
        <ele>62</ele>
      </trkpt>
      <trkpt lat="50.2748" lon="3.35028">
        <ele>65</ele>
      </trkpt>
      <trkpt lat="50.27461" lon="3.34856">
        <ele>64</ele>
      </trkpt>
      <trkpt lat="50.27368" lon="3.34646">
        <ele>62</ele>
      </trkpt>
    </trkseg>
  </trk>
</gpx>